createdAt,value
2018-01-10T00:01:32.464Z,26.07
2018-01-10T00:03:59.913Z,24.17
2018-01-10T00:06:27.343Z,24.73
2018-01-10T00:08:54.835Z,26.27
2018-01-10T00:11:22.225Z,25.10
2018-01-10T00:13:49.749Z,25.50
2018-01-10T00:16:17.310Z,28.50
2018-01-10T00:18:44.707Z,26.70
2018-01-10T00:21:12.115Z,27.00
2018-01-10T00:23:39.517Z,26.73
2018-01-10T00:26:07.138Z,25.83
2018-01-10T00:28:34.634Z,25.87
2018-01-10T00:31:02.089Z,26.30
2018-01-10T00:33:29.610Z,27.90
2018-01-10T00:35:57.170Z,25.87
2018-01-10T00:38:24.667Z,27.07
2018-01-10T00:40:52.225Z,26.07
2018-01-10T00:43:19.649Z,25.73
2018-01-10T00:45:47.040Z,25.00
2018-01-10T00:48:14.473Z,27.07
2018-01-10T00:50:42.014Z,26.50
2018-01-10T00:53:09.574Z,27.57
2018-01-10T00:55:37.074Z,26.80
2018-01-10T00:58:04.590Z,27.80
2018-01-10T01:00:32.047Z,26.70
2018-01-10T01:02:59.545Z,28.47
2018-01-10T01:05:26.937Z,28.30
2018-01-10T01:07:54.445Z,27.63
2018-01-10T01:10:21.834Z,28.53
2018-01-10T01:12:49.228Z,29.00
2018-01-10T01:15:16.633Z,29.67
2018-01-10T01:17:47.277Z,30.77
2018-01-10T01:20:14.680Z,28.17
2018-01-10T01:22:42.232Z,28.60
2018-01-10T01:25:09.629Z,28.20
2018-01-10T01:27:37.081Z,30.67
2018-01-10T01:30:04.603Z,28.67
2018-01-10T01:32:32.162Z,27.83
2018-01-10T01:34:59.575Z,30.43
2018-01-10T01:37:27.179Z,29.67
2018-01-10T01:39:54.738Z,31.67
2018-01-10T01:42:22.126Z,31.90
2018-01-10T01:44:49.537Z,30.00
2018-01-10T01:47:17.109Z,30.80
2018-01-10T01:49:44.668Z,31.37
2018-01-10T01:52:12.126Z,31.80
2018-01-10T01:54:39.891Z,31.37
2018-01-10T01:57:07.324Z,32.20
2018-01-10T01:59:34.709Z,32.30
2018-01-10T02:02:02.150Z,31.07
2018-01-10T02:04:29.543Z,32.00
2018-01-10T02:06:57.072Z,32.80
2018-01-10T02:09:24.493Z,31.23
2018-01-10T02:11:52.028Z,32.67
2018-01-10T02:14:19.548Z,33.50
2018-01-10T02:16:46.979Z,33.70
2018-01-10T02:19:14.394Z,32.30
2018-01-10T02:21:41.917Z,33.77
2018-01-10T02:24:09.354Z,34.73
2018-01-10T02:26:36.738Z,33.90
2018-01-10T02:29:04.117Z,33.47
2018-01-10T02:31:31.848Z,34.70
2018-01-10T02:33:59.407Z,34.10
2018-01-10T02:36:26.792Z,35.30
2018-01-10T02:38:54.256Z,36.13
2018-01-10T02:41:21.672Z,37.00
2018-01-10T02:43:49.998Z,37.07
2018-01-10T02:46:17.414Z,36.30
2018-01-10T02:48:44.806Z,36.00
2018-01-10T02:51:12.324Z,37.50
2018-01-10T02:53:39.882Z,38.90
2018-01-10T02:56:07.265Z,35.37
2018-01-10T02:58:34.733Z,35.53
2018-01-10T03:01:02.355Z,35.30
2018-01-10T03:03:29.750Z,36.10
2018-01-10T03:05:57.205Z,37.00
2018-01-10T03:08:24.830Z,36.87
2018-01-10T03:10:52.388Z,37.07
2018-01-10T03:13:19.828Z,35.73
2018-01-10T03:15:47.258Z,35.37
2018-01-10T03:18:14.641Z,35.30
2018-01-10T03:20:42.021Z,34.60
2018-01-10T03:23:09.457Z,34.20
2018-01-10T03:25:36.866Z,34.77
2018-01-10T03:28:04.281Z,33.73
2018-01-10T03:30:31.773Z,34.80
2018-01-10T03:32:59.308Z,34.30
2018-01-10T03:35:27.370Z,33.77
2018-01-10T03:37:54.926Z,33.43
2018-01-10T03:40:22.353Z,33.50
2018-01-10T03:42:49.741Z,32.97
2018-01-10T03:45:17.197Z,32.00
2018-01-10T03:47:44.756Z,33.50
2018-01-10T03:50:12.248Z,31.60
2018-01-10T03:52:39.808Z,32.70
2018-01-10T03:55:07.264Z,35.07
2018-01-10T03:57:34.657Z,33.63
2018-01-10T04:00:02.182Z,32.47
2018-01-10T04:02:29.571Z,33.47
2018-01-10T04:04:56.954Z,32.97
2018-01-10T04:07:24.449Z,34.43
2018-01-10T04:09:51.849Z,34.90
2018-01-10T04:12:19.537Z,36.83
2018-01-10T04:14:46.926Z,35.60
2018-01-10T04:17:14.340Z,33.70
2018-01-10T04:19:41.836Z,35.40
2018-01-10T04:22:09.220Z,34.73
2018-01-10T04:24:36.605Z,34.17
2018-01-10T04:27:04.170Z,34.60
2018-01-10T04:29:31.563Z,34.07
2018-01-10T04:31:59.021Z,34.80
2018-01-10T04:34:26.540Z,35.50
2018-01-10T04:36:54.025Z,35.10
2018-01-10T04:39:21.493Z,35.60
2018-01-10T04:41:49.034Z,33.20
2018-01-10T04:44:16.430Z,35.60
2018-01-10T04:46:43.869Z,35.40
2018-01-10T04:49:11.386Z,35.60
2018-01-10T04:51:38.813Z,35.40
2018-01-10T04:54:06.273Z,34.23
2018-01-10T04:56:33.860Z,35.77
2018-01-10T04:59:01.303Z,34.47
2018-01-10T05:01:28.721Z,33.70
2018-01-10T05:03:56.123Z,35.43
2018-01-10T05:06:23.496Z,36.50
2018-01-10T05:08:51.686Z,35.30
2018-01-10T05:11:19.065Z,34.97
2018-01-10T05:13:46.457Z,36.17
2018-01-10T05:16:13.837Z,35.77
2018-01-10T05:18:41.223Z,36.80
2018-01-10T05:21:08.616Z,35.30
2018-01-10T05:23:36.005Z,33.90
2018-01-10T05:26:03.434Z,35.00
2018-01-10T05:28:30.888Z,34.00
2018-01-10T05:30:58.274Z,35.87
2018-01-10T05:33:25.665Z,36.97
2018-01-10T05:35:53.261Z,37.87
2018-01-10T05:38:20.637Z,36.10
2018-01-10T05:40:48.006Z,36.60
2018-01-10T05:43:15.425Z,35.17
2018-01-10T05:45:42.837Z,36.23
2018-01-10T05:48:10.233Z,37.03
2018-01-10T05:50:37.588Z,38.00
2018-01-10T05:53:05.014Z,35.57
2018-01-10T05:55:32.377Z,38.50
2018-01-10T05:58:00.718Z,36.17
2018-01-10T06:00:28.179Z,33.70
2018-01-10T06:02:55.537Z,33.80
2018-01-10T06:05:22.896Z,38.23
2018-01-10T06:07:50.320Z,35.33
2018-01-10T06:10:17.697Z,35.20
2018-01-10T06:12:45.077Z,37.07
2018-01-10T06:15:12.492Z,35.70
2018-01-10T06:17:39.921Z,33.93
2018-01-10T06:20:07.294Z,34.97
2018-01-10T06:22:34.675Z,34.97
2018-01-10T06:25:02.099Z,32.40
2018-01-10T06:27:29.481Z,33.40
2018-01-10T06:29:56.872Z,32.10
2018-01-10T06:32:24.300Z,34.03
2018-01-10T06:34:51.678Z,34.93
2018-01-10T06:37:19.065Z,33.50
2018-01-10T06:39:46.467Z,31.83
2018-01-10T06:42:13.829Z,33.57
2018-01-10T06:44:41.189Z,33.57
2018-01-10T06:47:08.613Z,33.67
2018-01-10T06:49:35.996Z,31.20
2018-01-10T06:52:03.389Z,32.40
2018-01-10T06:54:30.805Z,32.73
2018-01-10T06:56:58.253Z,32.50
2018-01-10T06:59:25.622Z,33.80
2018-01-10T07:01:53.061Z,32.80
2018-01-10T07:04:20.449Z,34.37
2018-01-10T07:06:47.814Z,31.90
2018-01-10T07:09:15.233Z,31.63
2018-01-10T07:11:42.598Z,32.47
2018-01-10T07:14:10.043Z,31.30
2018-01-10T07:16:37.496Z,32.00
2018-01-10T07:19:04.865Z,32.57
2018-01-10T07:21:32.306Z,33.23
2018-01-10T07:23:59.693Z,31.70
2018-01-10T07:26:27.121Z,32.00
2018-01-10T07:28:54.508Z,31.80
2018-01-10T07:31:21.874Z,31.83
2018-01-10T07:33:49.276Z,33.60
2018-01-10T07:36:16.709Z,34.27
2018-01-10T07:38:44.080Z,33.57
2018-01-10T07:41:11.630Z,36.10
2018-01-10T07:43:39.051Z,34.50
2018-01-10T07:46:06.442Z,33.27
2018-01-10T07:48:33.825Z,32.80
2018-01-10T07:51:01.240Z,32.97
2018-01-10T07:53:28.627Z,33.10
2018-01-10T07:55:55.989Z,33.30
2018-01-10T07:58:23.429Z,31.57
2018-01-10T08:00:50.825Z,31.57
2018-01-10T08:03:18.194Z,33.57
2018-01-10T08:05:45.792Z,32.63
2018-01-10T08:08:13.161Z,31.03
2018-01-10T08:10:40.523Z,30.73
2018-01-10T08:13:07.954Z,31.87
2018-01-10T08:15:35.317Z,29.13
2018-01-10T08:18:03.310Z,29.53
2018-01-10T08:20:30.730Z,33.20
2018-01-10T08:22:58.105Z,31.27
2018-01-10T08:25:25.489Z,30.30
2018-01-10T08:27:52.936Z,30.10
2018-01-10T08:30:20.317Z,28.83
2018-01-10T08:32:47.721Z,32.23
2018-01-10T08:35:15.153Z,29.80
2018-01-10T08:37:42.522Z,31.67
2018-01-10T08:40:10.035Z,30.00
2018-01-10T08:42:37.575Z,31.50
2018-01-10T08:45:04.984Z,30.80
2018-01-10T08:47:32.364Z,30.07
2018-01-10T08:49:59.789Z,31.20
2018-01-10T08:52:27.197Z,29.37
2018-01-10T08:54:54.567Z,29.77
2018-01-10T08:57:21.969Z,27.80
2018-01-10T08:59:49.334Z,27.70
2018-01-10T09:02:16.721Z,27.80
2018-01-10T09:04:44.247Z,28.80
2018-01-10T09:07:11.807Z,28.50
2018-01-10T09:09:39.188Z,30.13
2018-01-10T09:12:06.601Z,28.60
2018-01-10T09:14:33.980Z,28.17
2018-01-10T09:17:01.350Z,28.80
2018-01-10T09:19:28.765Z,26.33
2018-01-10T09:21:56.161Z,28.53
2018-01-10T09:24:23.525Z,27.53
2018-01-10T09:26:50.948Z,28.63
2018-01-10T09:29:18.332Z,27.10
2018-01-10T09:31:45.714Z,27.47
2018-01-10T09:34:13.394Z,27.47
2018-01-10T09:36:40.788Z,26.47
2018-01-10T09:39:08.177Z,27.90
2018-01-10T09:41:35.610Z,26.97
2018-01-10T09:44:02.999Z,27.20
2018-01-10T09:46:30.417Z,26.33
2018-01-10T09:48:57.810Z,27.37
2018-01-10T09:51:25.197Z,26.70
2018-01-10T09:53:52.606Z,27.53
2018-01-10T09:56:20.001Z,28.83
2018-01-10T09:58:47.389Z,27.13
2018-01-10T10:01:14.786Z,28.27
2018-01-10T10:03:42.169Z,27.80
2018-01-10T10:06:09.557Z,28.00
2018-01-10T10:08:36.972Z,28.33
2018-01-10T10:11:04.337Z,27.97
2018-01-10T10:13:31.697Z,27.03
2018-01-10T10:15:59.113Z,29.40
2018-01-10T10:18:26.482Z,28.10
2018-01-10T10:20:53.894Z,29.10
2018-01-10T10:23:21.300Z,27.60
2018-01-10T10:25:48.688Z,27.80
2018-01-10T10:28:16.150Z,29.57
2018-01-10T10:30:43.546Z,29.27
2018-01-10T10:33:10.945Z,27.90
2018-01-10T10:35:38.364Z,29.40
2018-01-10T10:38:05.873Z,28.60
2018-01-10T10:40:33.274Z,28.00
2018-01-10T10:43:00.711Z,29.07
2018-01-10T10:45:28.168Z,28.20
2018-01-10T10:47:55.554Z,27.07
2018-01-10T10:52:49.937Z,28.77
2018-01-10T10:55:17.381Z,28.97
2018-01-10T10:57:44.777Z,29.90
2018-01-10T11:00:12.141Z,27.67
2018-01-10T11:02:39.561Z,28.40
2018-01-10T11:05:06.923Z,30.30
2018-01-10T11:07:34.329Z,29.90
2018-01-10T11:10:01.867Z,28.97
2018-01-10T11:12:29.265Z,29.50
2018-01-10T11:14:56.658Z,29.90
2018-01-10T11:17:24.098Z,31.50
2018-01-10T11:19:51.511Z,30.50
2018-01-10T11:22:18.916Z,29.10
2018-01-10T11:24:46.291Z,27.23
2018-01-10T11:27:13.663Z,27.90
2018-01-10T11:29:41.097Z,27.77
2018-01-10T11:32:08.459Z,28.53
2018-01-10T11:34:35.828Z,30.40
2018-01-10T11:37:03.305Z,28.90
2018-01-10T11:39:30.692Z,28.67
2018-01-10T11:41:58.091Z,27.90
2018-01-10T11:44:25.526Z,29.87
2018-01-10T11:49:43.371Z,30.70
2018-01-10T11:52:10.761Z,29.80
2018-01-10T11:54:38.193Z,29.77
2018-01-10T11:57:05.560Z,29.43
2018-01-10T11:59:32.990Z,31.00
2018-01-10T12:02:00.405Z,29.37
2018-01-10T12:04:27.805Z,29.03
2018-01-10T12:06:55.192Z,29.83
2018-01-10T12:09:22.655Z,28.50
2018-01-10T12:11:50.057Z,27.50
2018-01-10T12:14:17.770Z,28.10
2018-01-10T12:16:45.194Z,27.27
2018-01-10T12:19:12.567Z,28.00
2018-01-10T12:21:39.997Z,29.10
2018-01-10T12:24:07.381Z,27.00
2018-01-10T12:26:34.845Z,27.87
2018-01-10T12:29:02.241Z,29.50
2018-01-10T12:31:29.649Z,27.90
2018-01-10T12:33:57.078Z,28.10
2018-01-10T12:36:24.485Z,28.17
2018-01-10T12:38:51.868Z,30.00
2018-01-10T12:41:19.318Z,30.60
2018-01-10T12:43:46.798Z,29.47
2018-01-10T12:46:14.304Z,29.30
2018-01-10T12:48:42.016Z,27.30
2018-01-10T12:51:09.382Z,28.20
2018-01-10T12:53:36.758Z,27.20
2018-01-10T12:56:04.189Z,28.30
2018-01-10T12:58:31.833Z,26.13
2018-01-10T13:00:59.213Z,25.33
2018-01-10T13:03:26.635Z,26.70
2018-01-10T13:05:54.117Z,26.43
2018-01-10T13:08:21.556Z,26.23
2018-01-10T13:10:49.204Z,27.10
2018-01-10T13:13:16.584Z,27.60
2018-01-10T13:15:44.151Z,27.80
2018-01-10T13:18:11.597Z,26.87
2018-01-10T13:20:39.009Z,26.80
2018-01-10T13:23:06.413Z,25.43
2018-01-10T13:25:33.829Z,26.40
2018-01-10T13:28:01.300Z,25.63
2018-01-10T13:30:28.838Z,25.10
2018-01-10T13:32:56.342Z,26.37
2018-01-10T13:35:23.789Z,26.60
2018-01-10T13:37:51.248Z,26.57
2018-01-10T13:40:18.631Z,26.80
2018-01-10T13:42:45.996Z,27.40
2018-01-10T13:45:13.430Z,27.47
2018-01-10T13:47:40.793Z,26.50
2018-01-10T13:50:08.158Z,27.10
2018-01-10T13:52:35.583Z,26.77
2018-01-10T13:55:03.028Z,27.20
2018-01-10T13:57:30.484Z,27.70
2018-01-10T13:59:58.087Z,26.70
2018-01-10T14:02:25.548Z,27.60
2018-01-10T14:04:52.965Z,28.40
2018-01-10T14:07:20.369Z,28.70
2018-01-10T14:09:47.859Z,27.10
2018-01-10T14:12:15.560Z,26.50
2018-01-10T14:14:43.122Z,27.37
2018-01-10T14:17:14.055Z,25.80
2018-01-10T14:19:41.487Z,27.27
2018-01-10T14:22:08.863Z,26.57
2018-01-10T14:24:36.257Z,27.57
2018-01-10T14:27:03.642Z,26.33
2018-01-10T14:29:31.103Z,28.27
2018-01-10T14:31:58.502Z,27.97
2018-01-10T14:34:25.856Z,27.10
2018-01-10T14:36:53.814Z,27.07
2018-01-10T14:39:21.269Z,25.73
2018-01-10T14:41:48.626Z,26.67
2018-01-10T14:44:16.009Z,28.20
2018-01-10T14:46:43.414Z,28.03
2018-01-10T14:49:10.813Z,27.33
2018-01-10T14:51:38.316Z,27.47
2018-01-10T14:54:05.760Z,27.27
2018-01-10T14:56:33.120Z,28.77
2018-01-10T14:59:00.614Z,28.13
2018-01-10T15:01:28.009Z,28.50
2018-01-10T15:03:55.374Z,28.43
2018-01-10T15:06:22.773Z,27.00
2018-01-10T15:08:50.170Z,27.73
2018-01-10T15:11:17.534Z,28.40
2018-01-10T15:13:44.923Z,29.03
2018-01-10T15:16:12.294Z,27.70
2018-01-10T15:18:39.692Z,30.33
2018-01-10T15:21:07.049Z,26.60
2018-01-10T15:23:34.491Z,28.03
2018-01-10T15:26:01.884Z,29.43
2018-01-10T15:28:29.245Z,28.20
2018-01-10T15:30:56.649Z,28.10
2018-01-10T15:33:24.018Z,27.63
2018-01-10T15:35:51.413Z,30.70
2018-01-10T15:38:18.809Z,31.30
2018-01-10T15:40:46.233Z,31.47
2018-01-10T15:43:13.650Z,29.83
2018-01-10T15:45:41.025Z,27.80
2018-01-10T15:48:08.440Z,28.50
2018-01-10T15:50:35.839Z,29.80
2018-01-10T15:53:03.206Z,30.70
2018-01-10T15:55:30.607Z,28.70
2018-01-10T15:57:58.032Z,30.43
2018-01-10T16:00:25.460Z,30.20
2018-01-10T16:02:52.968Z,32.27
2018-01-10T16:05:20.329Z,27.80
2018-01-10T16:07:47.754Z,30.30
2018-01-10T16:10:15.125Z,30.93
2018-01-10T16:12:42.556Z,30.60
2018-01-10T16:15:09.961Z,30.40
2018-01-10T16:17:37.339Z,30.10
2018-01-10T16:20:04.724Z,29.87
2018-01-10T16:22:32.122Z,30.93
2018-01-10T16:24:59.485Z,30.97
2018-01-10T16:27:26.873Z,31.93
2018-01-10T16:29:54.286Z,30.37
2018-01-10T16:32:21.690Z,32.97
2018-01-10T16:34:49.088Z,30.60
2018-01-10T16:37:16.500Z,32.57
2018-01-10T16:39:43.873Z,32.60
2018-01-10T16:42:11.242Z,33.67
2018-01-10T16:44:38.664Z,31.97
2018-01-10T16:47:06.029Z,31.87
2018-01-10T16:49:33.511Z,32.53
2018-01-10T16:52:00.965Z,33.17
2018-01-10T16:54:28.386Z,31.37
2018-01-10T16:56:55.782Z,32.30
2018-01-10T16:59:23.146Z,31.27
2018-01-10T17:01:50.569Z,30.40
2018-01-10T17:04:17.986Z,31.70
2018-01-10T17:06:45.368Z,30.80
2018-01-10T17:09:12.821Z,29.57
2018-01-10T17:11:40.193Z,29.83
2018-01-10T17:14:07.578Z,31.97
2018-01-10T17:16:34.998Z,30.90
2018-01-10T17:19:02.377Z,31.07
2018-01-10T17:21:29.793Z,31.50
2018-01-10T17:23:57.208Z,29.13
2018-01-10T17:26:24.569Z,29.87
2018-01-10T17:28:51.988Z,31.23
2018-01-10T17:31:19.378Z,30.53
2018-01-10T17:33:46.794Z,31.13
2018-01-10T17:36:14.249Z,31.30
2018-01-10T17:38:41.619Z,30.27
2018-01-10T17:41:09.982Z,30.57
2018-01-10T17:43:37.364Z,29.00
2018-01-10T17:46:04.895Z,28.20
2018-01-10T17:48:32.455Z,29.27
2018-01-10T17:51:00.031Z,28.63
2018-01-10T17:53:27.469Z,28.50
2018-01-10T17:55:54.969Z,29.13
2018-01-10T17:58:22.374Z,27.60
2018-01-10T18:00:49.944Z,30.30
2018-01-10T18:03:17.505Z,28.53
2018-01-10T18:05:44.914Z,31.90
2018-01-10T18:08:12.521Z,30.40
2018-01-10T18:10:40.079Z,28.70
2018-01-10T18:13:07.744Z,29.97
2018-01-10T18:15:35.506Z,30.10
2018-01-10T18:18:04.556Z,30.00
2018-01-10T18:20:32.469Z,29.10
2018-01-10T18:23:00.335Z,29.17
2018-01-10T18:25:28.100Z,27.80
2018-01-10T18:27:55.976Z,29.17
2018-01-10T18:30:23.730Z,28.80
2018-01-10T18:32:51.406Z,28.80
2018-01-10T18:35:19.055Z,27.77
2018-01-10T18:37:47.125Z,28.17
2018-01-10T18:40:14.853Z,26.73
2018-01-10T18:42:42.553Z,28.20
2018-01-10T18:45:10.316Z,31.40
2018-01-10T18:47:37.979Z,30.80
2018-01-10T18:50:05.845Z,28.97
2018-01-10T18:52:33.812Z,27.77
2018-01-10T18:55:01.577Z,27.47
2018-01-10T18:57:29.342Z,28.30
2018-01-10T18:59:57.042Z,28.07
2018-01-10T19:02:24.705Z,29.20
2018-01-10T19:04:52.478Z,28.77
2018-01-10T19:07:20.705Z,29.30
2018-01-10T19:09:48.379Z,29.43
2018-01-10T19:12:16.131Z,25.07
2018-01-10T19:14:43.809Z,26.43
2018-01-10T19:17:11.396Z,25.87
2018-01-10T19:19:39.085Z,25.80
2018-01-10T19:22:06.620Z,25.97
2018-01-10T19:24:34.062Z,25.60
2018-01-10T19:27:01.501Z,26.17
2018-01-10T19:29:28.870Z,25.90
2018-01-10T19:31:56.265Z,27.00
2018-01-10T19:34:23.699Z,26.43
2018-01-10T19:36:51.317Z,27.20
2018-01-10T19:39:18.754Z,26.07
2018-01-10T19:41:46.177Z,28.60
2018-01-10T19:44:13.603Z,28.90
2018-01-10T19:46:40.987Z,30.20
2018-01-10T19:49:08.358Z,29.00
2018-01-10T19:51:35.855Z,28.77
2018-01-10T19:54:03.617Z,28.53
2018-01-10T19:56:33.320Z,26.97
2018-01-10T19:59:01.927Z,30.03
2018-01-10T20:01:29.646Z,29.17
2018-01-10T20:03:57.109Z,28.20
2018-01-10T20:06:24.529Z,29.20
2018-01-10T20:08:52.086Z,29.77
2018-01-10T20:11:19.467Z,31.73
2018-01-10T20:13:46.903Z,29.73
2018-01-10T20:16:14.294Z,29.70
2018-01-10T20:18:41.722Z,31.57
2018-01-10T20:21:09.086Z,30.60
2018-01-10T20:23:36.481Z,31.37
2018-01-10T20:26:04.045Z,31.70
2018-01-10T20:28:31.709Z,31.33
2018-01-10T20:30:59.124Z,32.10
2018-01-10T20:33:26.663Z,32.00
2018-01-10T20:35:54.086Z,30.60
2018-01-10T20:38:21.445Z,32.80
2018-01-10T20:40:52.769Z,31.83
2018-01-10T20:43:20.318Z,31.77
2018-01-10T20:45:47.681Z,32.10
2018-01-10T20:48:15.214Z,33.17
2018-01-10T20:50:42.596Z,35.40
2018-01-10T20:53:10.003Z,34.83
2018-01-10T20:55:37.399Z,33.60
2018-01-10T20:58:05.291Z,44.50
2018-01-10T21:00:32.669Z,35.83
2018-01-10T21:03:00.095Z,35.37
2018-01-10T21:05:27.482Z,34.70
2018-01-10T21:07:54.838Z,34.20
2018-01-10T21:10:22.229Z,37.10
2018-01-10T21:12:49.692Z,34.50
2018-01-10T21:15:17.029Z,36.90
2018-01-10T21:17:44.544Z,36.97
2018-01-10T21:20:12.164Z,35.57
2018-01-10T21:22:39.642Z,36.00
2018-01-10T21:25:07.057Z,36.63
2018-01-10T21:27:34.481Z,35.90
2018-01-10T21:30:01.852Z,35.93
2018-01-10T21:32:29.225Z,35.70
2018-01-10T21:34:56.637Z,36.50
2018-01-10T21:37:24.007Z,36.73
2018-01-10T21:39:51.421Z,38.77
2018-01-10T21:42:18.844Z,37.80
2018-01-10T21:44:46.209Z,35.07
2018-01-10T21:47:13.576Z,36.97
2018-01-10T21:49:40.987Z,35.80
2018-01-10T21:52:08.357Z,37.87
2018-01-10T21:54:35.742Z,35.17
2018-01-10T21:57:03.165Z,38.43
2018-01-10T21:59:30.551Z,38.10
2018-01-10T22:01:57.974Z,37.60
2018-01-10T22:04:25.376Z,36.83
2018-01-10T22:06:52.752Z,35.70
2018-01-10T22:09:20.154Z,35.50
2018-01-10T22:11:47.582Z,37.83
2018-01-10T22:14:14.949Z,38.00
2018-01-10T22:16:42.358Z,36.90
2018-01-10T22:19:09.730Z,38.67
2018-01-10T22:21:37.110Z,36.50
2018-01-10T22:24:04.532Z,37.97
2018-01-10T22:26:31.918Z,35.83
2018-01-10T22:28:59.285Z,38.00
2018-01-10T22:31:26.690Z,37.30
2018-01-10T22:33:54.077Z,37.53
2018-01-10T22:36:21.438Z,36.00
2018-01-10T22:38:48.866Z,38.53
2018-01-10T22:41:16.246Z,37.50
2018-01-10T22:43:43.619Z,35.13
2018-01-10T22:46:11.099Z,38.37
2018-01-10T22:48:38.438Z,36.93
2018-01-10T22:51:06.647Z,36.50
2018-01-10T22:53:34.040Z,35.10
2018-01-10T22:56:01.411Z,33.57
2018-01-10T22:58:28.809Z,32.50
2018-01-10T23:00:56.205Z,35.60
2018-01-10T23:03:23.567Z,36.60
2018-01-10T23:05:50.946Z,35.13
2018-01-10T23:08:18.381Z,34.57
2018-01-10T23:10:45.754Z,34.30
2018-01-10T23:13:13.149Z,33.23
2018-01-10T23:15:40.563Z,37.13
2018-01-10T23:18:07.932Z,37.13
2018-01-10T23:20:35.302Z,37.20
2018-01-10T23:23:02.704Z,38.13
2018-01-10T23:25:30.070Z,35.80
2018-01-10T23:27:57.442Z,36.60
2018-01-10T23:30:24.857Z,37.87
2018-01-10T23:32:52.241Z,34.67
2018-01-10T23:35:19.617Z,32.97
2018-01-10T23:37:47.030Z,35.30
2018-01-10T23:40:14.394Z,35.10
2018-01-10T23:42:41.809Z,34.30
2018-01-10T23:45:09.204Z,37.40
2018-01-10T23:47:36.569Z,38.00
2018-01-10T23:50:03.986Z,36.87
2018-01-10T23:52:31.409Z,37.87
2018-01-10T23:54:58.781Z,36.63
2018-01-10T23:57:26.196Z,34.83
2018-01-10T23:59:53.558Z,32.00
